Terminal Aerodrome Forecast
Issued by NWS

Home | Current Version | Previous Version | Text Only | Print | Product List | Glossary On
Versions: 1 2 3 4 5 6 7 8 9 10 11 12 13 14
000
FTUS42 KTBW 221700
TAFPGD
TAF
KPGD 221739Z 2218/2318 27006KT P6SM VCTS SCT035CB SCT250
      TEMPO 2218/2220 VRB15G25KT 3SM TSRA BKN025CB
     FM230100 VRB03KT P6SM SCT035 BKN250
     FM231400 22005KT P6SM SCT020 SCT250=

USA.gov is the U.S. government's official web portal to all federal, state and local government web resources and services.